sensor_id;sensor_type;location;lat;lon;timestamp;P1;durP1;ratioP1;P2;durP2;ratioP2
54502;SDS011;40411;50.090;21.954;2023-09-19T00:00:19;14.18;;;7.90;;
54502;SDS011;40411;50.090;21.954;2023-09-19T00:03:09;11.63;;;7.05;;
54502;SDS011;40411;50.090;21.954;2023-09-19T00:05:37;14.48;;;7.38;;
54502;SDS011;40411;50.090;21.954;2023-09-19T00:08:04;12.95;;;8.15;;
54502;SDS011;40411;50.090;21.954;2023-09-19T00:10:31;16.52;;;8.02;;
54502;SDS011;40411;50.090;21.954;2023-09-19T00:13:01;14.40;;;8.15;;
54502;SDS011;40411;50.090;21.954;2023-09-19T00:15:36;14.85;;;8.05;;
54502;SDS011;40411;50.090;21.954;2023-09-19T00:18:04;14.70;;;8.30;;
54502;SDS011;40411;50.090;21.954;2023-09-19T00:20:37;14.02;;;7.80;;
54502;SDS011;40411;50.090;21.954;2023-09-19T00:23:04;15.43;;;7.93;;
54502;SDS011;40411;50.090;21.954;2023-09-19T00:25:37;17.33;;;7.68;;
54502;SDS011;40411;50.090;21.954;2023-09-19T00:28:04;14.93;;;7.80;;
54502;SDS011;40411;50.090;21.954;2023-09-19T00:30:31;16.48;;;7.93;;
54502;SDS011;40411;50.090;21.954;2023-09-19T00:32:58;12.98;;;6.90;;
54502;SDS011;40411;50.090;21.954;2023-09-19T00:35:24;13.23;;;7.30;;
54502;SDS011;40411;50.090;21.954;2023-09-19T00:37:50;11.88;;;7.30;;
54502;SDS011;40411;50.090;21.954;2023-09-19T00:40:16;12.00;;;7.57;;
54502;SDS011;40411;50.090;21.954;2023-09-19T00:42:44;11.32;;;6.80;;
54502;SDS011;40411;50.090;21.954;2023-09-19T00:45:11;14.57;;;7.70;;
54502;SDS011;40411;50.090;21.954;2023-09-19T00:47:40;13.52;;;7.00;;
54502;SDS011;40411;50.090;21.954;2023-09-19T00:50:07;15.00;;;8.73;;
54502;SDS011;40411;50.090;21.954;2023-09-19T00:52:36;16.20;;;8.80;;
54502;SDS011;40411;50.090;21.954;2023-09-19T00:55:06;14.02;;;8.27;;
54502;SDS011;40411;50.090;21.954;2023-09-19T00:57:33;13.68;;;8.55;;
54502;SDS011;40411;50.090;21.954;2023-09-19T01:00:01;17.60;;;8.20;;
54502;SDS011;40411;50.090;21.954;2023-09-19T01:02:32;13.57;;;7.63;;
54502;SDS011;40411;50.090;21.954;2023-09-19T01:04:59;15.23;;;7.20;;
54502;SDS011;40411;50.090;21.954;2023-09-19T01:07:30;12.20;;;7.18;;
54502;SDS011;40411;50.090;21.954;2023-09-19T01:09:58;14.98;;;8.10;;
54502;SDS011;40411;50.090;21.954;2023-09-19T01:15:28;13.85;;;7.95;;
54502;SDS011;40411;50.090;21.954;2023-09-19T01:20:37;16.85;;;7.95;;
54502;SDS011;40411;50.090;21.954;2023-09-19T01:31:23;16.42;;;8.50;;
54502;SDS011;40411;50.090;21.954;2023-09-19T01:33:57;15.10;;;8.52;;
54502;SDS011;40411;50.090;21.954;2023-09-19T01:36:30;13.63;;;7.85;;
54502;SDS011;40411;50.090;21.954;2023-09-19T01:39:04;15.07;;;8.10;;
54502;SDS011;40411;50.090;21.954;2023-09-19T01:41:45;12.32;;;7.28;;
54502;SDS011;40411;50.090;21.954;2023-09-19T01:44:21;14.23;;;7.80;;
54502;SDS011;40411;50.090;21.954;2023-09-19T01:46:51;14.18;;;7.70;;
54502;SDS011;40411;50.090;21.954;2023-09-19T01:52:10;13.32;;;7.75;;
54502;SDS011;40411;50.090;21.954;2023-09-19T01:54:46;14.48;;;8.15;;
54502;SDS011;40411;50.090;21.954;2023-09-19T01:57:29;13.50;;;8.35;;
54502;SDS011;40411;50.090;21.954;2023-09-19T02:00:05;17.33;;;8.77;;
54502;SDS011;40411;50.090;21.954;2023-09-19T02:02:42;15.90;;;9.32;;
54502;SDS011;40411;50.090;21.954;2023-09-19T02:05:10;17.98;;;9.80;;
54502;SDS011;40411;50.090;21.954;2023-09-19T02:07:37;20.50;;;9.80;;
54502;SDS011;40411;50.090;21.954;2023-09-19T02:10:04;16.58;;;9.10;;
54502;SDS011;40411;50.090;21.954;2023-09-19T02:12:31;13.90;;;8.45;;
54502;SDS011;40411;50.090;21.954;2023-09-19T02:15:03;15.93;;;7.80;;
54502;SDS011;40411;50.090;21.954;2023-09-19T02:17:29;20.50;;;8.32;;
54502;SDS011;40411;50.090;21.954;2023-09-19T02:19:56;12.82;;;7.93;;
54502;SDS011;40411;50.090;21.954;2023-09-19T02:22:24;12.32;;;7.20;;
54502;SDS011;40411;50.090;21.954;2023-09-19T02:24:50;14.52;;;7.45;;
54502;SDS011;40411;50.090;21.954;2023-09-19T02:27:18;12.50;;;7.55;;
54502;SDS011;40411;50.090;21.954;2023-09-19T02:29:44;15.98;;;6.93;;
54502;SDS011;40411;50.090;21.954;2023-09-19T02:32:09;12.02;;;7.03;;
54502;SDS011;40411;50.090;21.954;2023-09-19T02:34:36;16.30;;;7.60;;
54502;SDS011;40411;50.090;21.954;2023-09-19T02:37:02;12.90;;;7.70;;
54502;SDS011;40411;50.090;21.954;2023-09-19T02:39:31;12.85;;;7.38;;
54502;SDS011;40411;50.090;21.954;2023-09-19T02:41:57;16.67;;;7.82;;
54502;SDS011;40411;50.090;21.954;2023-09-19T02:44:23;12.60;;;6.50;;
54502;SDS011;40411;50.090;21.954;2023-09-19T02:46:50;15.13;;;7.05;;
54502;SDS011;40411;50.090;21.954;2023-09-19T02:49:16;11.82;;;6.93;;
54502;SDS011;40411;50.090;21.954;2023-09-19T02:51:43;13.75;;;6.93;;
54502;SDS011;40411;50.090;21.954;2023-09-19T02:54:10;11.43;;;6.90;;
54502;SDS011;40411;50.090;21.954;2023-09-19T02:56:36;12.52;;;5.85;;
54502;SDS011;40411;50.090;21.954;2023-09-19T02:59:03;11.50;;;6.75;;
54502;SDS011;40411;50.090;21.954;2023-09-19T03:01:29;14.10;;;7.05;;
54502;SDS011;40411;50.090;21.954;2023-09-19T03:03:55;12.98;;;6.68;;
54502;SDS011;40411;50.090;21.954;2023-09-19T03:06:21;10.63;;;6.75;;
54502;SDS011;40411;50.090;21.954;2023-09-19T03:08:50;14.40;;;6.57;;
54502;SDS011;40411;50.090;21.954;2023-09-19T03:11:17;14.05;;;7.97;;
54502;SDS011;40411;50.090;21.954;2023-09-19T03:13:52;12.50;;;7.65;;
54502;SDS011;40411;50.090;21.954;2023-09-19T03:16:19;13.30;;;7.50;;
54502;SDS011;40411;50.090;21.954;2023-09-19T03:18:48;12.40;;;6.45;;
54502;SDS011;40411;50.090;21.954;2023-09-19T03:21:16;12.68;;;6.85;;
54502;SDS011;40411;50.090;21.954;2023-09-19T03:23:43;11.18;;;5.93;;
54502;SDS011;40411;50.090;21.954;2023-09-19T03:26:12;10.18;;;6.80;;
54502;SDS011;40411;50.090;21.954;2023-09-19T03:28:41;11.10;;;6.60;;
54502;SDS011;40411;50.090;21.954;2023-09-19T03:31:09;12.02;;;6.32;;
54502;SDS011;40411;50.090;21.954;2023-09-19T03:33:36;11.73;;;6.55;;
54502;SDS011;40411;50.090;21.954;2023-09-19T03:36:03;14.00;;;6.35;;
54502;SDS011;40411;50.090;21.954;2023-09-19T03:38:30;11.35;;;5.63;;
54502;SDS011;40411;50.090;21.954;2023-09-19T03:40:57;9.30;;;5.93;;
54502;SDS011;40411;50.090;21.954;2023-09-19T03:43:24;11.38;;;5.82;;
54502;SDS011;40411;50.090;21.954;2023-09-19T03:45:50;13.38;;;6.10;;
54502;SDS011;40411;50.090;21.954;2023-09-19T03:48:17;16.38;;;6.00;;
54502;SDS011;40411;50.090;21.954;2023-09-19T03:50:43;13.15;;;7.18;;
54502;SDS011;40411;50.090;21.954;2023-09-19T03:53:12;9.52;;;6.30;;
54502;SDS011;40411;50.090;21.954;2023-09-19T03:55:37;11.48;;;6.47;;
54502;SDS011;40411;50.090;21.954;2023-09-19T03:58:06;11.45;;;6.68;;
54502;SDS011;40411;50.090;21.954;2023-09-19T04:00:32;14.23;;;7.00;;
54502;SDS011;40411;50.090;21.954;2023-09-19T04:03:00;11.00;;;6.72;;
54502;SDS011;40411;50.090;21.954;2023-09-19T04:05:27;11.23;;;7.47;;
54502;SDS011;40411;50.090;21.954;2023-09-19T04:07:53;14.10;;;7.85;;
54502;SDS011;40411;50.090;21.954;2023-09-19T04:10:38;14.15;;;7.90;;
54502;SDS011;40411;50.090;21.954;2023-09-19T04:13:04;12.40;;;7.20;;
54502;SDS011;40411;50.090;21.954;2023-09-19T04:15:30;15.05;;;8.10;;
54502;SDS011;40411;50.090;21.954;2023-09-19T04:17:56;16.67;;;7.82;;
54502;SDS011;40411;50.090;21.954;2023-09-19T04:20:22;13.23;;;7.93;;
54502;SDS011;40411;50.090;21.954;2023-09-19T04:22:49;21.63;;;7.53;;
54502;SDS011;40411;50.090;21.954;2023-09-19T04:25:15;11.73;;;7.47;;
54502;SDS011;40411;50.090;21.954;2023-09-19T04:27:41;15.77;;;7.85;;
54502;SDS011;40411;50.090;21.954;2023-09-19T04:30:07;14.27;;;7.50;;
54502;SDS011;40411;50.090;21.954;2023-09-19T04:32:40;15.98;;;7.97;;
54502;SDS011;40411;50.090;21.954;2023-09-19T04:35:07;13.85;;;7.90;;
54502;SDS011;40411;50.090;21.954;2023-09-19T04:37:43;12.07;;;7.53;;
54502;SDS011;40411;50.090;21.954;2023-09-19T04:40:09;12.75;;;7.75;;
54502;SDS011;40411;50.090;21.954;2023-09-19T04:42:43;12.43;;;7.75;;
54502;SDS011;40411;50.090;21.954;2023-09-19T04:45:10;15.98;;;7.85;;
54502;SDS011;40411;50.090;21.954;2023-09-19T04:47:36;11.27;;;7.20;;
54502;SDS011;40411;50.090;21.954;2023-09-19T04:50:05;12.82;;;7.47;;
54502;SDS011;40411;50.090;21.954;2023-09-19T04:52:32;14.80;;;7.45;;
54502;SDS011;40411;50.090;21.954;2023-09-19T04:54:58;12.38;;;7.45;;
54502;SDS011;40411;50.090;21.954;2023-09-19T04:57:24;11.02;;;6.90;;
54502;SDS011;40411;50.090;21.954;2023-09-19T04:59:50;10.95;;;6.57;;
54502;SDS011;40411;50.090;21.954;2023-09-19T05:02:16;11.07;;;6.88;;
54502;SDS011;40411;50.090;21.954;2023-09-19T05:04:42;11.68;;;7.10;;
54502;SDS011;40411;50.090;21.954;2023-09-19T05:07:08;15.80;;;7.07;;
54502;SDS011;40411;50.090;21.954;2023-09-19T05:09:33;12.50;;;7.38;;
54502;SDS011;40411;50.090;21.954;2023-09-19T05:12:00;13.35;;;6.57;;
54502;SDS011;40411;50.090;21.954;2023-09-19T05:14:26;10.00;;;6.57;;
54502;SDS011;40411;50.090;21.954;2023-09-19T05:16:52;9.18;;;6.18;;
54502;SDS011;40411;50.090;21.954;2023-09-19T05:19:17;12.05;;;6.90;;
54502;SDS011;40411;50.090;21.954;2023-09-19T05:21:43;11.35;;;6.13;;
54502;SDS011;40411;50.090;21.954;2023-09-19T05:24:09;12.23;;;7.03;;
54502;SDS011;40411;50.090;21.954;2023-09-19T05:26:37;10.80;;;6.70;;
54502;SDS011;40411;50.090;21.954;2023-09-19T05:29:02;9.98;;;6.88;;
54502;SDS011;40411;50.090;21.954;2023-09-19T05:31:30;9.90;;;6.55;;
54502;SDS011;40411;50.090;21.954;2023-09-19T05:33:56;9.63;;;6.38;;
54502;SDS011;40411;50.090;21.954;2023-09-19T05:36:22;9.65;;;5.82;;
54502;SDS011;40411;50.090;21.954;2023-09-19T05:38:48;10.02;;;6.15;;
54502;SDS011;40411;50.090;21.954;2023-09-19T05:41:16;10.25;;;6.28;;
54502;SDS011;40411;50.090;21.954;2023-09-19T05:43:43;9.80;;;6.18;;
54502;SDS011;40411;50.090;21.954;2023-09-19T05:46:09;11.43;;;5.78;;
54502;SDS011;40411;50.090;21.954;2023-09-19T05:48:34;11.63;;;7.78;;
54502;SDS011;40411;50.090;21.954;2023-09-19T05:51:01;9.73;;;5.63;;
54502;SDS011;40411;50.090;21.954;2023-09-19T05:53:27;11.20;;;6.05;;
54502;SDS011;40411;50.090;21.954;2023-09-19T05:55:54;13.00;;;6.07;;
54502;SDS011;40411;50.090;21.954;2023-09-19T05:58:20;9.57;;;6.10;;
54502;SDS011;40411;50.090;21.954;2023-09-19T06:00:46;11.27;;;6.50;;
54502;SDS011;40411;50.090;21.954;2023-09-19T06:03:13;10.75;;;6.07;;
54502;SDS011;40411;50.090;21.954;2023-09-19T06:05:40;9.10;;;6.18;;
54502;SDS011;40411;50.090;21.954;2023-09-19T06:08:07;10.15;;;6.30;;
54502;SDS011;40411;50.090;21.954;2023-09-19T06:10:33;9.05;;;5.78;;
54502;SDS011;40411;50.090;21.954;2023-09-19T06:13:01;9.02;;;5.78;;
54502;SDS011;40411;50.090;21.954;2023-09-19T06:15:30;9.43;;;5.78;;
54502;SDS011;40411;50.090;21.954;2023-09-19T06:17:58;13.35;;;6.47;;
54502;SDS011;40411;50.090;21.954;2023-09-19T06:20:25;9.50;;;6.10;;
54502;SDS011;40411;50.090;21.954;2023-09-19T06:22:52;9.95;;;5.60;;
54502;SDS011;40411;50.090;21.954;2023-09-19T06:25:19;8.48;;;5.32;;
54502;SDS011;40411;50.090;21.954;2023-09-19T06:27:45;8.57;;;5.05;;
54502;SDS011;40411;50.090;21.954;2023-09-19T06:30:12;9.02;;;6.00;;
54502;SDS011;40411;50.090;21.954;2023-09-19T06:32:39;12.00;;;6.80;;
54502;SDS011;40411;50.090;21.954;2023-09-19T06:35:13;9.77;;;6.00;;
54502;SDS011;40411;50.090;21.954;2023-09-19T06:37:41;11.63;;;5.68;;
54502;SDS011;40411;50.090;21.954;2023-09-19T06:40:11;8.80;;;5.85;;
54502;SDS011;40411;50.090;21.954;2023-09-19T06:42:42;10.20;;;5.95;;
54502;SDS011;40411;50.090;21.954;2023-09-19T06:45:13;11.23;;;6.07;;
54502;SDS011;40411;50.090;21.954;2023-09-19T06:47:47;9.95;;;5.90;;
54502;SDS011;40411;50.090;21.954;2023-09-19T06:50:16;10.32;;;6.28;;
54502;SDS011;40411;50.090;21.954;2023-09-19T06:52:44;9.60;;;6.72;;
54502;SDS011;40411;50.090;21.954;2023-09-19T06:55:11;8.65;;;6.10;;
54502;SDS011;40411;50.090;21.954;2023-09-19T06:57:39;11.73;;;6.43;;
54502;SDS011;40411;50.090;21.954;2023-09-19T07:00:11;12.13;;;7.38;;
54502;SDS011;40411;50.090;21.954;2023-09-19T07:02:57;15.48;;;7.40;;
54502;SDS011;40411;50.090;21.954;2023-09-19T07:05:30;12.75;;;6.30;;
54502;SDS011;40411;50.090;21.954;2023-09-19T07:07:56;10.65;;;6.85;;
54502;SDS011;40411;50.090;21.954;2023-09-19T07:10:25;12.40;;;7.22;;
54502;SDS011;40411;50.090;21.954;2023-09-19T07:12:57;10.00;;;6.43;;
54502;SDS011;40411;50.090;21.954;2023-09-19T07:15:24;15.25;;;7.03;;
54502;SDS011;40411;50.090;21.954;2023-09-19T07:17:53;9.63;;;6.22;;
54502;SDS011;40411;50.090;21.954;2023-09-19T07:20:22;12.85;;;5.55;;
54502;SDS011;40411;50.090;21.954;2023-09-19T07:22:48;14.90;;;6.38;;
54502;SDS011;40411;50.090;21.954;2023-09-19T07:25:16;13.23;;;6.32;;
54502;SDS011;40411;50.090;21.954;2023-09-19T07:27:42;19.05;;;6.00;;
54502;SDS011;40411;50.090;21.954;2023-09-19T07:30:09;12.13;;;5.30;;
54502;SDS011;40411;50.090;21.954;2023-09-19T07:32:37;9.80;;;5.78;;
54502;SDS011;40411;50.090;21.954;2023-09-19T07:35:05;9.50;;;4.95;;
54502;SDS011;40411;50.090;21.954;2023-09-19T07:37:31;7.63;;;4.68;;
54502;SDS011;40411;50.090;21.954;2023-09-19T07:40:07;16.67;;;9.65;;
54502;SDS011;40411;50.090;21.954;2023-09-19T07:42:36;9.15;;;6.05;;
54502;SDS011;40411;50.090;21.954;2023-09-19T07:45:06;8.95;;;4.75;;
54502;SDS011;40411;50.090;21.954;2023-09-19T07:47:33;7.45;;;4.57;;
54502;SDS011;40411;50.090;21.954;2023-09-19T07:50:00;7.90;;;4.20;;
54502;SDS011;40411;50.090;21.954;2023-09-19T07:52:28;6.45;;;4.22;;
54502;SDS011;40411;50.090;21.954;2023-09-19T07:54:55;9.32;;;4.30;;
54502;SDS011;40411;50.090;21.954;2023-09-19T07:57:22;7.28;;;4.03;;
54502;SDS011;40411;50.090;21.954;2023-09-19T07:59:48;7.35;;;4.07;;
54502;SDS011;40411;50.090;21.954;2023-09-19T08:02:14;6.25;;;3.78;;
54502;SDS011;40411;50.090;21.954;2023-09-19T08:04:44;8.45;;;4.63;;
54502;SDS011;40411;50.090;21.954;2023-09-19T08:07:14;9.30;;;5.13;;
54502;SDS011;40411;50.090;21.954;2023-09-19T08:09:41;7.57;;;4.38;;
54502;SDS011;40411;50.090;21.954;2023-09-19T08:12:11;9.30;;;5.38;;
54502;SDS011;40411;50.090;21.954;2023-09-19T08:14:37;11.80;;;5.63;;
54502;SDS011;40411;50.090;21.954;2023-09-19T08:17:03;10.52;;;5.15;;
54502;SDS011;40411;50.090;21.954;2023-09-19T08:19:33;9.15;;;5.70;;
54502;SDS011;40411;50.090;21.954;2023-09-19T08:21:59;10.07;;;5.90;;
54502;SDS011;40411;50.090;21.954;2023-09-19T08:24:27;9.27;;;6.00;;
54502;SDS011;40411;50.090;21.954;2023-09-19T08:26:57;12.95;;;5.88;;
54502;SDS011;40411;50.090;21.954;2023-09-19T08:29:23;14.00;;;6.40;;
54502;SDS011;40411;50.090;21.954;2023-09-19T08:31:54;10.30;;;6.80;;
54502;SDS011;40411;50.090;21.954;2023-09-19T08:34:21;13.23;;;6.80;;
54502;SDS011;40411;50.090;21.954;2023-09-19T08:36:50;13.25;;;6.95;;
54502;SDS011;40411;50.090;21.954;2023-09-19T08:39:16;9.82;;;6.43;;
54502;SDS011;40411;50.090;21.954;2023-09-19T08:41:43;12.15;;;6.82;;
54502;SDS011;40411;50.090;21.954;2023-09-19T08:44:09;12.48;;;6.60;;
54502;SDS011;40411;50.090;21.954;2023-09-19T08:46:35;13.85;;;6.50;;
54502;SDS011;40411;50.090;21.954;2023-09-19T08:49:14;12.40;;;7.13;;
54502;SDS011;40411;50.090;21.954;2023-09-19T08:51:53;15.13;;;6.43;;
54502;SDS011;40411;50.090;21.954;2023-09-19T08:54:32;11.43;;;5.97;;
54502;SDS011;40411;50.090;21.954;2023-09-19T08:57:05;8.32;;;5.82;;
54502;SDS011;40411;50.090;21.954;2023-09-19T08:59:37;9.32;;;5.50;;
54502;SDS011;40411;50.090;21.954;2023-09-19T09:02:09;7.88;;;5.07;;
54502;SDS011;40411;50.090;21.954;2023-09-19T09:04:40;9.45;;;5.03;;
54502;SDS011;40411;50.090;21.954;2023-09-19T09:07:10;12.50;;;5.97;;
54502;SDS011;40411;50.090;21.954;2023-09-19T09:09:38;13.85;;;5.85;;
54502;SDS011;40411;50.090;21.954;2023-09-19T09:12:16;14.15;;;5.85;;
54502;SDS011;40411;50.090;21.954;2023-09-19T09:14:44;8.82;;;5.50;;
54502;SDS011;40411;50.090;21.954;2023-09-19T09:17:11;12.05;;;5.90;;
54502;SDS011;40411;50.090;21.954;2023-09-19T09:19:37;11.15;;;6.03;;
54502;SDS011;40411;50.090;21.954;2023-09-19T09:22:10;9.25;;;5.70;;
54502;SDS011;40411;50.090;21.954;2023-09-19T09:24:37;10.20;;;5.00;;
54502;SDS011;40411;50.090;21.954;2023-09-19T09:27:19;10.70;;;5.40;;
54502;SDS011;40411;50.090;21.954;2023-09-19T09:29:46;8.25;;;5.70;;
54502;SDS011;40411;50.090;21.954;2023-09-19T09:32:21;14.35;;;6.07;;
54502;SDS011;40411;50.090;21.954;2023-09-19T09:35:01;9.95;;;6.05;;
54502;SDS011;40411;50.090;21.954;2023-09-19T09:37:34;10.02;;;5.22;;
54502;SDS011;40411;50.090;21.954;2023-09-19T09:40:04;12.23;;;5.40;;
54502;SDS011;40411;50.090;21.954;2023-09-19T09:42:42;13.60;;;5.85;;
54502;SDS011;40411;50.090;21.954;2023-09-19T09:45:18;12.50;;;4.68;;
54502;SDS011;40411;50.090;21.954;2023-09-19T09:48:01;8.40;;;4.78;;
54502;SDS011;40411;50.090;21.954;2023-09-19T09:50:46;10.20;;;5.18;;
54502;SDS011;40411;50.090;21.954;2023-09-19T09:53:28;8.05;;;5.03;;
54502;SDS011;40411;50.090;21.954;2023-09-19T09:56:04;7.45;;;4.80;;
54502;SDS011;40411;50.090;21.954;2023-09-19T09:58:40;9.63;;;4.75;;
54502;SDS011;40411;50.090;21.954;2023-09-19T10:01:18;9.98;;;5.10;;
54502;SDS011;40411;50.090;21.954;2023-09-19T10:03:43;9.23;;;5.25;;
54502;SDS011;40411;50.090;21.954;2023-09-19T10:06:14;9.95;;;5.47;;
54502;SDS011;40411;50.090;21.954;2023-09-19T10:09:00;9.52;;;5.93;;
54502;SDS011;40411;50.090;21.954;2023-09-19T10:11:40;11.20;;;5.90;;
54502;SDS011;40411;50.090;21.954;2023-09-19T10:14:16;11.15;;;6.47;;
54502;SDS011;40411;50.090;21.954;2023-09-19T10:16:46;9.88;;;5.55;;
54502;SDS011;40411;50.090;21.954;2023-09-19T10:19:20;11.25;;;5.90;;
54502;SDS011;40411;50.090;21.954;2023-09-19T10:21:56;13.00;;;5.97;;
54502;SDS011;40411;50.090;21.954;2023-09-19T10:24:24;9.38;;;6.38;;
54502;SDS011;40411;50.090;21.954;2023-09-19T10:26:53;10.50;;;6.43;;
54502;SDS011;40411;50.090;21.954;2023-09-19T10:29:20;12.73;;;6.45;;
54502;SDS011;40411;50.090;21.954;2023-09-19T10:31:47;10.20;;;5.88;;
54502;SDS011;40411;50.090;21.954;2023-09-19T10:34:16;12.95;;;6.38;;
54502;SDS011;40411;50.090;21.954;2023-09-19T10:36:46;11.57;;;6.93;;
54502;SDS011;40411;50.090;21.954;2023-09-19T10:39:15;9.35;;;5.90;;
54502;SDS011;40411;50.090;21.954;2023-09-19T10:41:51;16.73;;;6.45;;
54502;SDS011;40411;50.090;21.954;2023-09-19T10:44:24;12.25;;;6.68;;
54502;SDS011;40411;50.090;21.954;2023-09-19T10:46:54;13.65;;;6.38;;
54502;SDS011;40411;50.090;21.954;2023-09-19T10:49:20;10.35;;;6.68;;
54502;SDS011;40411;50.090;21.954;2023-09-19T10:51:47;11.77;;;6.15;;
54502;SDS011;40411;50.090;21.954;2023-09-19T10:54:20;11.65;;;7.28;;
54502;SDS011;40411;50.090;21.954;2023-09-19T10:56:52;10.82;;;6.03;;
54502;SDS011;40411;50.090;21.954;2023-09-19T10:59:19;10.70;;;6.57;;
54502;SDS011;40411;50.090;21.954;2023-09-19T11:01:56;10.32;;;6.28;;
54502;SDS011;40411;50.090;21.954;2023-09-19T11:04:35;10.48;;;6.68;;
54502;SDS011;40411;50.090;21.954;2023-09-19T11:09:48;9.52;;;5.47;;
54502;SDS011;40411;50.090;21.954;2023-09-19T11:14:51;9.57;;;5.95;;
54502;SDS011;40411;50.090;21.954;2023-09-19T11:30:34;7.95;;;4.57;;
54502;SDS011;40411;50.090;21.954;2023-09-19T11:43:45;8.00;;;3.83;;
54502;SDS011;40411;50.090;21.954;2023-09-19T11:46:12;6.93;;;4.20;;
54502;SDS011;40411;50.090;21.954;2023-09-19T11:48:45;6.40;;;3.55;;
54502;SDS011;40411;50.090;21.954;2023-09-19T11:51:14;6.80;;;3.35;;
54502;SDS011;40411;50.090;21.954;2023-09-19T11:53:45;7.45;;;3.53;;
54502;SDS011;40411;50.090;21.954;2023-09-19T11:56:18;7.63;;;3.60;;
54502;SDS011;40411;50.090;21.954;2023-09-19T11:58:46;5.65;;;3.60;;
54502;SDS011;40411;50.090;21.954;2023-09-19T12:01:20;5.75;;;3.28;;
54502;SDS011;40411;50.090;21.954;2023-09-19T12:03:58;8.23;;;3.95;;
54502;SDS011;40411;50.090;21.954;2023-09-19T12:06:28;6.90;;;3.15;;
54502;SDS011;40411;50.090;21.954;2023-09-19T12:08:55;7.05;;;3.85;;
54502;SDS011;40411;50.090;21.954;2023-09-19T12:11:28;6.57;;;3.42;;
54502;SDS011;40411;50.090;21.954;2023-09-19T12:13:59;5.57;;;3.20;;
54502;SDS011;40411;50.090;21.954;2023-09-19T12:16:26;6.25;;;3.55;;
54502;SDS011;40411;50.090;21.954;2023-09-19T12:18:56;6.63;;;3.22;;
54502;SDS011;40411;50.090;21.954;2023-09-19T12:21:24;7.00;;;2.90;;
54502;SDS011;40411;50.090;21.954;2023-09-19T12:26:30;5.63;;;3.15;;
54502;SDS011;40411;50.090;21.954;2023-09-19T12:29:03;6.35;;;3.67;;
54502;SDS011;40411;50.090;21.954;2023-09-19T12:31:30;5.85;;;3.30;;
54502;SDS011;40411;50.090;21.954;2023-09-19T12:34:01;7.28;;;3.30;;
54502;SDS011;40411;50.090;21.954;2023-09-19T12:36:28;6.85;;;4.10;;
54502;SDS011;40411;50.090;21.954;2023-09-19T12:38:58;11.70;;;4.63;;
54502;SDS011;40411;50.090;21.954;2023-09-19T12:41:33;7.80;;;4.20;;
54502;SDS011;40411;50.090;21.954;2023-09-19T12:43:59;10.07;;;4.82;;
54502;SDS011;40411;50.090;21.954;2023-09-19T12:46:25;9.95;;;5.30;;
54502;SDS011;40411;50.090;21.954;2023-09-19T12:51:43;7.68;;;4.25;;
54502;SDS011;40411;50.090;21.954;2023-09-19T12:54:09;9.50;;;5.55;;
54502;SDS011;40411;50.090;21.954;2023-09-19T12:56:41;8.88;;;5.53;;
54502;SDS011;40411;50.090;21.954;2023-09-19T12:59:11;12.13;;;5.90;;
54502;SDS011;40411;50.090;21.954;2023-09-19T13:01:39;12.82;;;5.82;;
54502;SDS011;40411;50.090;21.954;2023-09-19T13:04:20;7.82;;;5.03;;
54502;SDS011;40411;50.090;21.954;2023-09-19T13:06:55;10.57;;;6.10;;
54502;SDS011;40411;50.090;21.954;2023-09-19T13:09:26;7.97;;;4.38;;
54502;SDS011;40411;50.090;21.954;2023-09-19T13:12:04;9.20;;;5.60;;
54502;SDS011;40411;50.090;21.954;2023-09-19T13:14:32;9.55;;;5.72;;
54502;SDS011;40411;50.090;21.954;2023-09-19T13:17:03;7.78;;;4.63;;
54502;SDS011;40411;50.090;21.954;2023-09-19T13:19:41;11.20;;;5.97;;
54502;SDS011;40411;50.090;21.954;2023-09-19T13:25:12;8.98;;;5.10;;
54502;SDS011;40411;50.090;21.954;2023-09-19T13:27:41;11.65;;;5.75;;
54502;SDS011;40411;50.090;21.954;2023-09-19T13:30:07;8.48;;;4.60;;
54502;SDS011;40411;50.090;21.954;2023-09-19T13:32:34;10.93;;;5.35;;
54502;SDS011;40411;50.090;21.954;2023-09-19T13:35:00;12.23;;;5.03;;
54502;SDS011;40411;50.090;21.954;2023-09-19T13:37:26;9.20;;;5.07;;
54502;SDS011;40411;50.090;21.954;2023-09-19T13:39:52;10.13;;;4.32;;
54502;SDS011;40411;50.090;21.954;2023-09-19T13:42:19;7.82;;;4.45;;
54502;SDS011;40411;50.090;21.954;2023-09-19T13:44:48;9.40;;;4.53;;
54502;SDS011;40411;50.090;21.954;2023-09-19T13:47:14;8.68;;;4.72;;
54502;SDS011;40411;50.090;21.954;2023-09-19T13:49:41;9.20;;;3.97;;
54502;SDS011;40411;50.090;21.954;2023-09-19T13:52:08;8.88;;;4.32;;
54502;SDS011;40411;50.090;21.954;2023-09-19T13:54:34;8.10;;;4.32;;
54502;SDS011;40411;50.090;21.954;2023-09-19T13:57:00;10.63;;;5.78;;
54502;SDS011;40411;50.090;21.954;2023-09-19T13:59:26;12.23;;;5.10;;
54502;SDS011;40411;50.090;21.954;2023-09-19T14:01:54;12.52;;;5.63;;
54502;SDS011;40411;50.090;21.954;2023-09-19T14:04:20;11.07;;;5.40;;
54502;SDS011;40411;50.090;21.954;2023-09-19T14:06:47;11.25;;;5.70;;
54502;SDS011;40411;50.090;21.954;2023-09-19T14:09:13;8.98;;;5.57;;
54502;SDS011;40411;50.090;21.954;2023-09-19T14:11:39;9.77;;;5.10;;
54502;SDS011;40411;50.090;21.954;2023-09-19T14:14:05;12.02;;;5.78;;
54502;SDS011;40411;50.090;21.954;2023-09-19T14:16:31;9.20;;;5.82;;
54502;SDS011;40411;50.090;21.954;2023-09-19T14:18:58;14.60;;;5.72;;
54502;SDS011;40411;50.090;21.954;2023-09-19T14:21:24;12.15;;;6.03;;
54502;SDS011;40411;50.090;21.954;2023-09-19T14:23:50;11.50;;;5.80;;
54502;SDS011;40411;50.090;21.954;2023-09-19T14:26:16;10.63;;;5.43;;
54502;SDS011;40411;50.090;21.954;2023-09-19T14:28:42;10.70;;;5.85;;
54502;SDS011;40411;50.090;21.954;2023-09-19T14:31:08;13.02;;;6.50;;
54502;SDS011;40411;50.090;21.954;2023-09-19T14:33:35;14.07;;;6.85;;
54502;SDS011;40411;50.090;21.954;2023-09-19T14:36:02;13.52;;;6.13;;
54502;SDS011;40411;50.090;21.954;2023-09-19T14:38:33;16.95;;;5.85;;
54502;SDS011;40411;50.090;21.954;2023-09-19T14:41:00;10.60;;;5.38;;
54502;SDS011;40411;50.090;21.954;2023-09-19T14:43:30;14.63;;;6.05;;
54502;SDS011;40411;50.090;21.954;2023-09-19T14:46:02;11.98;;;5.93;;
54502;SDS011;40411;50.090;21.954;2023-09-19T14:48:29;11.02;;;6.07;;
54502;SDS011;40411;50.090;21.954;2023-09-19T14:50:54;10.73;;;6.07;;
54502;SDS011;40411;50.090;21.954;2023-09-19T14:53:21;11.07;;;6.45;;
54502;SDS011;40411;50.090;21.954;2023-09-19T14:55:46;10.82;;;6.57;;
54502;SDS011;40411;50.090;21.954;2023-09-19T14:58:17;12.10;;;6.53;;
54502;SDS011;40411;50.090;21.954;2023-09-19T15:00:43;11.05;;;6.65;;
54502;SDS011;40411;50.090;21.954;2023-09-19T15:03:11;10.85;;;6.82;;
54502;SDS011;40411;50.090;21.954;2023-09-19T15:05:37;14.45;;;6.53;;
54502;SDS011;40411;50.090;21.954;2023-09-19T15:08:03;14.48;;;6.20;;
54502;SDS011;40411;50.090;21.954;2023-09-19T15:10:29;12.27;;;6.43;;
54502;SDS011;40411;50.090;21.954;2023-09-19T15:12:56;17.00;;;6.65;;
54502;SDS011;40411;50.090;21.954;2023-09-19T15:15:21;11.30;;;6.07;;
54502;SDS011;40411;50.090;21.954;2023-09-19T15:17:47;11.05;;;6.18;;
54502;SDS011;40411;50.090;21.954;2023-09-19T15:20:13;11.02;;;5.97;;
54502;SDS011;40411;50.090;21.954;2023-09-19T15:22:40;11.75;;;6.05;;
54502;SDS011;40411;50.090;21.954;2023-09-19T15:25:05;12.88;;;7.10;;
54502;SDS011;40411;50.090;21.954;2023-09-19T15:27:32;11.95;;;6.75;;
54502;SDS011;40411;50.090;21.954;2023-09-19T15:30:04;10.55;;;6.15;;